• Join FlightAware (Why Join?)
  • Login
  • US Flag 
07:57PM EDT


 

Airport Tracker/Info


-or-


 

Live Flight TrackerFlight Track Log ✈ SKW6492 ✈ 28-Jun-2013 ✈ KIAH - KIAD

Flight Track Log - Related Links

Times and Time Zones

All times are in EDT time to prevent confusion due to time zone crossing. See the SKW6492 flight status page for this flight to view local times or setup timezone preferences in your user account.

Time Position Orientation Groundspeed Altitude Reporting Facility
EDT Latitude Longitude Course Direction KTS MPH feet Rate Location/Type
11:26AM 29.9528 -95.3375 127° Southeast 209 241 800  Level Houston Center
11:27AM 29.9275 -95.2989 127° Southeast 202 232 2,100 1,560 Climbing Houston Center
11:28AM 29.8881 -95.2397 128° Southeast 219 252 3,800 1,920 Climbing Houston Center
11:29AM 29.8842 -95.1517 93° East 267 307 6,100 2,220 Climbing Houston Center
11:30AM 29.8817 -95.0619 92° East 277 319 8,400 2,220 Climbing Houston Center
11:31AM 29.8789 -94.9497 92° East 287 330 10,800 2,040 Climbing Houston Center
11:32AM 29.8756 -94.8528 92° East 298 343 12,700 1,560 Climbing Houston Center
11:33AM 29.8747 -94.7478 90° East 318 366 14,100 1,320 Climbing Houston Center
11:34AM 29.8714 -94.6358 92° East 341 392 15,500 1,440 Climbing Houston Center
11:35AM 29.8681 -94.5206 92° East 355 409 17,100 1,320 Climbing Houston Center
11:36AM 29.8900 -94.4061 78° East 366 421 18,300 1,140 Climbing Houston Center
11:37AM 29.9172 -94.2661 77° East 378 435 19,500 1,200 Climbing Houston Center
11:38AM 29.9406 -94.1436 78° East 388 447 20,900 1,320 Climbing Houston Center
11:39AM 29.9650 -94.0181 77° East 398 458 22,300 1,320 Climbing Houston Center
11:40AM 29.9892 -93.8936 77° East 400 460 23,700 1,320 Climbing Houston Center
11:41AM 30.0144 -93.7686 77° East 402 463 25,100 1,500 Climbing Houston Center
11:42AM 30.0422 -93.6206 78° East 399 459 26,800 1,440 Climbing Houston Center
11:43AM 30.0658 -93.4967 78° East 400 460 28,100 1,140 Climbing Houston Center
11:44AM 30.0889 -93.3744 78° East 396 456 29,200 900 Climbing Houston Center
11:45AM 30.1119 -93.2500 78° East 400 460 30,000 720 Climbing Houston Center
11:46AM 30.1414 -93.0967 77° East 412 474 30,700 600 Climbing Houston Center
11:47AM 30.1725 -92.9650 75° East 425 489 31,300 540 Climbing Houston Center
11:48AM 30.2039 -92.8344 74° East 424 488 31,900 540 Climbing Houston Center
11:49AM 30.2350 -92.7000 75° East 432 497 32,500 600 Climbing Houston Center
11:50AM 30.2661 -92.5653 75° East 436 502 33,200 720 Climbing Houston Center
11:51AM 30.3031 -92.4036 75° East 435 501 34,000 720 Climbing Houston Center
11:52AM 30.3322 -92.2728 75° East 432 497 34,800 720 Climbing Houston Center
11:53AM 30.3633 -92.1389 75° East 431 496 35,500 660 Climbing Houston Center
11:54AM 30.3933 -92.0067 75° East 429 494 36,200 720 Climbing Houston Center
11:56AM 30.4286 -91.8483 75° East 425 489 37,000 360 Climbing Houston Center
11:57AM 30.4592 -91.7192 75° East 428 493 37,000  Level Houston Center
11:58AM 30.4900 -91.5786 76° East 439 505 37,000  Level Houston Center
11:59AM 30.5200 -91.4411 76° East 443 510 37,000  Level Houston Center
12:00PM 30.5511 -91.3053 75° East 444 511 37,000  Level Houston Center
12:01PM 30.5806 -91.1672 76° East 438 504 37,000  Level Houston Center
12:02PM 30.6161 -91.0075 75° East 432 497 37,000  Level Houston Center
12:03PM 30.6450 -90.8731 76° East 430 495 37,000  Level Houston Center
12:04PM 30.6733 -90.7386 76° East 428 493 37,000  Level Houston Center
12:05PM 30.7028 -90.6064 75° East 424 488 37,000  Level Houston Center
12:06PM 30.7300 -90.4719 77° East 426 490 37,000  Level Houston Center
12:07PM 30.7592 -90.3350 76° East 432 497 37,000  Level Houston Center
12:08PM 30.7958 -90.1678 76° East 444 511 37,000  Level Houston Center
12:09PM 30.8247 -90.0267 77° East 447 514 37,000  Level Houston Center
12:10PM 30.8539 -89.8847 77° East 448 516 37,000  Level Houston Center
12:11PM 30.8836 -89.7433 76° East 448 516 37,000  Level Houston Center
12:12PM 30.9256 -89.6083 70° East 446 513 37,000  Level Houston Center
12:13PM 30.9786 -89.4803 64° Northeast 442 509 37,000  Level Houston Center
12:14PM 31.0319 -89.3511 64° Northeast 442 509 37,000  Level Houston Center
12:15PM 31.0942 -89.1933 65° Northeast 447 514 37,000  Level Houston Center
12:16PM 31.1472 -89.0642 64° Northeast 444 511 37,000  Level Houston Center
12:17PM 31.1997 -88.9339 65° Northeast 445 512 37,000  Level Houston Center
12:18PM 31.2544 -88.8025 64° Northeast 440 506 37,000  Level Houston Center
12:19PM 31.3075 -88.6714 65° Northeast 446 513 37,000  Level Houston Center
12:20PM 31.3594 -88.5400 65° Northeast 442 509 37,000  Level Houston Center
12:21PM 31.4131 -88.4092 64° Northeast 443 510 37,000  Level Houston Center
12:22PM 31.4764 -88.2519 65° Northeast 443 510 37,000  Level Houston Center
12:23PM 31.5275 -88.1197 66° East 442 509 37,000  Level Houston Center
12:25PM 31.5806 -87.9875 65° Northeast 445 512 37,000  Level Houston Center
12:26PM 31.6314 -87.8561 66° East 442 509 37,000  Level Houston Center
12:27PM 31.6828 -87.7253 65° Northeast 444 511 37,000  Level Houston Center
12:28PM 31.7572 -87.5486 64° Northeast 434 499 37,000  Level Atlanta Center
12:29PM 31.8069 -87.4186 66° East 434 499 37,000  Level Atlanta Center
12:30PM 31.8497 -87.2978 67° East 434 499 37,000  Level Atlanta Center
12:31PM 31.9036 -87.1531 66° East 434 499 37,000  Level Atlanta Center
12:32PM 31.9547 -87.0228 65° Northeast 434 499 37,000  Level Atlanta Center
12:33PM 32.0081 -86.8922 64° Northeast 434 499 37,000  Level Atlanta Center
12:34PM 32.0547 -86.7589 68° East 434 499 37,000  Level Atlanta Center
12:35PM 32.1119 -86.6258 63° Northeast 439 505 37,000  Level Atlanta Center
12:36PM 32.1606 -86.4922 67° East 439 505 37,000  Level Atlanta Center
12:37PM 32.2069 -86.3658 67° East 439 505 37,000  Level Atlanta Center
12:38PM 32.2739 -86.2400 58° Northeast 434 499 37,000  Level Atlanta Center
12:39PM 32.3508 -86.1286 51° Northeast 437 503 37,000  Level Atlanta Center
12:40PM 32.4300 -86.0125 51° Northeast 437 503 37,000  Level Atlanta Center
12:41PM 32.5006 -85.9033 53° Northeast 432 497 37,000  Level Atlanta Center
12:42PM 32.5839 -85.7842 50° Northeast 444 511 37,000  Level Atlanta Center
12:43PM 32.6606 -85.6697 51° Northeast 444 511 37,000  Level Atlanta Center
12:44PM 32.7350 -85.5550 52° Northeast 444 511 37,000  Level Atlanta Center
12:45PM 32.8114 -85.4403 52° Northeast 444 511 37,000  Level Atlanta Center
12:46PM 32.8878 -85.3278 51° Northeast 444 511 37,000  Level Atlanta Center
12:47PM 32.9642 -85.2125 52° Northeast 444 511 37,000  Level Atlanta Center
12:48PM 33.0319 -85.1142 51° Northeast 437 503 37,000  Level Atlanta Center
12:49PM 33.1081 -84.9986 52° Northeast 437 503 37,000  Level Atlanta Center
12:50PM 33.1819 -84.8828 53° Northeast 443 510 37,000  Level Atlanta Center
12:51PM 33.2578 -84.7667 52° Northeast 443 510 37,000  Level Atlanta Center
12:52PM 33.3314 -84.6481 53° Northeast 443 510 37,000  Level Atlanta Center
12:53PM 33.4133 -84.5217 52° Northeast 443 510 37,000  Level Atlanta Center
12:54PM 33.4889 -84.4025 53° Northeast 443 510 37,000  Level Atlanta Center
12:55PM 33.5664 -84.2831 52° Northeast 443 510 37,000  Level Atlanta Center
12:56PM 33.6419 -84.1636 53° Northeast 443 510 37,000  Level Atlanta Center
12:57PM 33.7169 -84.0464 52° Northeast 450 518 37,000  Level Atlanta Center
12:58PM 33.7942 -83.9264 52° Northeast 450 518 37,000  Level Atlanta Center
12:59PM 33.8692 -83.8061 53° Northeast 450 518 37,000  Level Atlanta Center
01:00PM 33.9461 -83.6883 52° Northeast 445 512 37,000  Level Atlanta Center
01:01PM 34.0208 -83.5725 52° Northeast 440 506 37,000  Level Atlanta Center
01:02PM 34.0975 -83.4492 53° Northeast 445 512 37,000  Level Atlanta Center
01:03PM 34.1742 -83.3256 53° Northeast 451 519 37,000  Level Atlanta Center
01:04PM 34.2525 -83.1969 54° Northeast 467 537 37,000  Level Atlanta Center
01:05PM 34.3331 -83.0703 52° Northeast 467 537 37,000  Level Atlanta Center
01:06PM 34.4092 -82.9436 54° Northeast 467 537 37,000  Level Atlanta Center
01:07PM 34.4875 -82.8192 53° Northeast 462 532 37,000  Level Atlanta Center
01:08PM 34.5572 -82.7069 53° Northeast 456 525 37,000  Level Atlanta Center
01:09PM 34.6411 -82.5744 52° Northeast 461 531 37,000  Level Atlanta Center
01:10PM 34.7189 -82.4492 53° Northeast 461 531 37,000  Level Atlanta Center
01:11PM 34.7944 -82.3264 53° Northeast 461 531 37,000  Level Atlanta Center
01:12PM 34.8719 -82.2008 53° Northeast 461 531 37,000  Level Atlanta Center
01:13PM 34.9472 -82.0775 53° Northeast 456 525 37,000  Level Atlanta Center
01:14PM 35.0244 -81.9436 55° Northeast 470 541 37,000  Level Atlanta Center
01:15PM 35.0950 -81.8125 57° Northeast 470 541 37,000  Level Atlanta Center
01:16PM 35.1617 -81.6886 57° Northeast 475 547 37,000 -240 Level Atlanta Center
01:17PM 35.2319 -81.5519 58° Northeast 475 547 36,600 -720 Descending Atlanta Center
01:18PM 35.3064 -81.4150 56° Northeast 480 552 35,600 -840 Descending Atlanta Center
01:19PM 35.3744 -81.2803 58° Northeast 480 552 35,000 -300 Descending Atlanta Center
01:20PM 35.4442 -81.1428 58° Northeast 472 543 35,000  Level Atlanta Center
01:21PM 35.5158 -81.0025 58° Northeast 478 550 35,000 -180 Level Atlanta Center
01:22PM 35.5897 -80.8669 56° Northeast 483 556 34,700 -780 Descending Atlanta Center
01:23PM 35.6611 -80.7286 58° Northeast 483 556 33,500 -900 Descending Atlanta Center
01:24PM 35.7325 -80.5928 57° Northeast 478 550 33,000 -180 Descending Atlanta Center
01:26PM 35.8864 -80.2889 58° Northeast 493 567 33,000  Level Washington Center
01:27PM 35.9589 -80.1469 58° Northeast 487 560 33,000  Level Washington Center
01:28PM 36.0397 -79.9922 57° Northeast 474 545 33,000  Level Washington Center
01:29PM 36.1178 -79.8528 55° Northeast 479 551 33,000  Level Washington Center
01:30PM 36.1978 -79.7103 55° Northeast 496 571 33,000  Level Washington Center
01:31PM 36.2711 -79.5853 54° Northeast 502 578 33,000 -600 Level Washington Center
01:32PM 36.3575 -79.4297 55° Northeast 502 578 31,900 -1,260 Descending Washington Center
01:33PM 36.4283 -79.3017 55° Northeast 502 578 30,500 -1,560 Descending Washington Center
01:34PM 36.5078 -79.1556 56° Northeast 502 578 28,800 -1,860 Descending Washington Center
01:35PM 36.5936 -79.0067 54° Northeast 497 572 26,800 -1,860 Descending Washington Center
01:36PM 36.6706 -78.8625 56° Northeast 497 572 25,200 -960 Descending Washington Center
01:37PM 36.7450 -78.7283 55° Northeast 491 565 25,000 -120 Descending Washington Center
01:38PM 36.8175 -78.5936 56° Northeast 473 544 25,000 -600 Level Washington Center
01:39PM 36.9075 -78.4986 40° Northeast 467 537 23,900 -1,080 Descending Washington Center
01:40PM 37.0122 -78.3881 40° Northeast 467 537 22,900 -960 Descending Washington Center
01:41PM 37.1150 -78.2772 41° Northeast 474 545 22,000 -480 Descending Washington Center
01:42PM 37.2261 -78.1583 40° Northeast 479 551 22,000  Level Washington Center
01:43PM 37.3136 -78.0647 40° Northeast 466 536 22,000  Level Washington Center
01:44PM 37.4136 -77.9556 41° Northeast 466 536 22,000 -540 Level Washington Center
01:45PM 37.5161 -77.8436 41° Northeast 471 542 21,000 -1,560 Descending Washington Center
01:46PM 37.6300 -77.7683 28° Northeast 471 542 18,900 -2,280 Descending Washington Center
01:47PM 37.7375 -77.7058 25° Northeast 445 512 16,600 -2,220 Descending Washington Center
01:48PM 37.8469 -77.6431 24° Northeast 424 488 14,600 -1,920 Descending Washington Center
01:49PM 37.9525 -77.5800 25° Northeast 418 481 12,800 -1,740 Descending Washington Center
01:50PM 38.0533 -77.5247 23° Northeast 408 470 11,100 -1,440 Descending Washington Center
01:51PM 38.1522 -77.4664 25° Northeast 398 458 10,000 -600 Descending Washington Center
01:52PM 38.2367 -77.4158 25° Northeast 367 422 10,000 -780 Level Washington Center
01:53PM 38.3164 -77.3675 25° Northeast 330 380 8,500 -1,380 Descending Washington Center
01:54PM 38.3958 -77.3586 North 308 354 7,300 -1,260 Descending Washington Center
01:55PM 38.4750 -77.3633 357° North 286 329 6,100 -1,200 Descending Washington Center
01:56PM 38.5500 -77.3650 359° North 280 322 5,000 -840 Descending Washington Center
01:57PM 38.6272 -77.3642 360° North 275 316 4,500 -540 Descending Washington Center
01:58PM 38.7044 -77.3633 360° North 275 316 4,000 -300 Descending Washington Center
01:59PM 38.7817 -77.3600 North 270 311 4,000  Level Washington Center
02:00PM 38.8586 -77.3564 North 270 311 4,000 -180 Level Washington Center
02:01PM 38.9667 -77.3500 North 270 311 3,600 -480 Descending Potomac TRACON
02:02PM 39.0500 -77.3500 360° North 247 284 2,900 -780 Descending Potomac TRACON
02:03PM 39.0833 -77.4000 311° West 217 250 2,000 -660 Descending Potomac TRACON
02:04PM 39.0333 -77.4333 207° Southwest 202 232 1,600 -480 Descending Potomac TRACON
02:05PM 39.0000 -77.4333 180° South 140 161 1,100 -540 Descending Potomac TRACON
02:07PM 38.9474 -77.4599 195° South  Level Estimated
02:14PM 38.9474 -77.4599 195° South  Level Estimated
02:15PM 38.9474 -77.4599 195° South  Level Estimated
02:16PM 38.9474 -77.4599 195° South  Level Estimated
02:17PM 38.9474 -77.4599 195° South  Level Estimated
02:18PM 38.9474 -77.4599 195° South  Level Estimated